sensor_id;sensor_type;location;lat;lon;timestamp;P1;durP1;ratioP1;P2;durP2;ratioP2
4466;SDS011;2246;42.664;23.278;2022-11-04T00:01:29;21.38;;;8.27;;
4466;SDS011;2246;42.664;23.278;2022-11-04T00:03:56;20.77;;;7.88;;
4466;SDS011;2246;42.664;23.278;2022-11-04T00:06:22;21.65;;;8.25;;
4466;SDS011;2246;42.664;23.278;2022-11-04T00:08:52;18.92;;;8.10;;
4466;SDS011;2246;42.664;23.278;2022-11-04T00:11:18;18.00;;;9.20;;
4466;SDS011;2246;42.664;23.278;2022-11-04T00:14:04;21.73;;;8.27;;
4466;SDS011;2246;42.664;23.278;2022-11-04T00:16:30;22.73;;;9.13;;
4466;SDS011;2246;42.664;23.278;2022-11-04T00:19:15;21.42;;;8.43;;
4466;SDS011;2246;42.664;23.278;2022-11-04T00:21:42;18.27;;;8.43;;
4466;SDS011;2246;42.664;23.278;2022-11-04T00:24:27;22.08;;;8.85;;
4466;SDS011;2246;42.664;23.278;2022-11-04T00:27:13;24.75;;;8.35;;
4466;SDS011;2246;42.664;23.278;2022-11-04T00:29:57;21.83;;;8.43;;
4466;SDS011;2246;42.664;23.278;2022-11-04T00:32:24;16.02;;;7.95;;
4466;SDS011;2246;42.664;23.278;2022-11-04T00:35:09;21.85;;;8.15;;
4466;SDS011;2246;42.664;23.278;2022-11-04T00:37:39;18.63;;;8.27;;
4466;SDS011;2246;42.664;23.278;2022-11-04T00:40:06;22.33;;;8.35;;
4466;SDS011;2246;42.664;23.278;2022-11-04T00:42:32;23.33;;;7.82;;
4466;SDS011;2246;42.664;23.278;2022-11-04T00:44:58;20.08;;;8.45;;
4466;SDS011;2246;42.664;23.278;2022-11-04T00:47:24;18.42;;;8.18;;
4466;SDS011;2246;42.664;23.278;2022-11-04T00:49:51;27.02;;;8.88;;
4466;SDS011;2246;42.664;23.278;2022-11-04T00:52:17;21.50;;;7.70;;
4466;SDS011;2246;42.664;23.278;2022-11-04T00:54:43;15.82;;;7.72;;
4466;SDS011;2246;42.664;23.278;2022-11-04T00:57:12;20.95;;;8.38;;
4466;SDS011;2246;42.664;23.278;2022-11-04T00:59:38;17.08;;;7.72;;
4466;SDS011;2246;42.664;23.278;2022-11-04T01:02:05;28.77;;;7.65;;
4466;SDS011;2246;42.664;23.278;2022-11-04T01:04:31;21.80;;;9.60;;
4466;SDS011;2246;42.664;23.278;2022-11-04T01:06:57;20.20;;;8.43;;
4466;SDS011;2246;42.664;23.278;2022-11-04T01:09:23;24.67;;;9.07;;
4466;SDS011;2246;42.664;23.278;2022-11-04T01:11:49;18.13;;;7.93;;
4466;SDS011;2246;42.664;23.278;2022-11-04T01:14:15;19.85;;;8.70;;
4466;SDS011;2246;42.664;23.278;2022-11-04T01:16:42;19.95;;;7.50;;
4466;SDS011;2246;42.664;23.278;2022-11-04T01:19:08;22.88;;;8.38;;
4466;SDS011;2246;42.664;23.278;2022-11-04T01:21:34;26.45;;;9.23;;
4466;SDS011;2246;42.664;23.278;2022-11-04T01:24:00;18.75;;;8.13;;
4466;SDS011;2246;42.664;23.278;2022-11-04T01:26:26;20.00;;;8.48;;
4466;SDS011;2246;42.664;23.278;2022-11-04T01:28:53;20.13;;;8.75;;
4466;SDS011;2246;42.664;23.278;2022-11-04T01:31:21;28.70;;;8.87;;
4466;SDS011;2246;42.664;23.278;2022-11-04T01:33:47;17.20;;;8.15;;
4466;SDS011;2246;42.664;23.278;2022-11-04T01:36:14;19.15;;;8.25;;
4466;SDS011;2246;42.664;23.278;2022-11-04T01:38:40;21.02;;;7.55;;
4466;SDS011;2246;42.664;23.278;2022-11-04T01:41:06;19.40;;;7.85;;
4466;SDS011;2246;42.664;23.278;2022-11-04T01:46:07;20.85;;;8.75;;
4466;SDS011;2246;42.664;23.278;2022-11-04T01:48:35;20.58;;;8.82;;
4466;SDS011;2246;42.664;23.278;2022-11-04T01:51:02;21.05;;;8.73;;
4466;SDS011;2246;42.664;23.278;2022-11-04T01:53:32;19.92;;;8.27;;
4466;SDS011;2246;42.664;23.278;2022-11-04T01:56:00;25.38;;;8.98;;
4466;SDS011;2246;42.664;23.278;2022-11-04T01:58:29;23.02;;;9.52;;
4466;SDS011;2246;42.664;23.278;2022-11-04T02:00:56;27.10;;;10.68;;
4466;SDS011;2246;42.664;23.278;2022-11-04T02:03:23;27.90;;;11.25;;
4466;SDS011;2246;42.664;23.278;2022-11-04T02:05:51;31.50;;;12.07;;
4466;SDS011;2246;42.664;23.278;2022-11-04T02:08:17;22.40;;;10.77;;
4466;SDS011;2246;42.664;23.278;2022-11-04T02:10:53;30.25;;;11.27;;
4466;SDS011;2246;42.664;23.278;2022-11-04T02:13:22;25.95;;;12.13;;
4466;SDS011;2246;42.664;23.278;2022-11-04T02:16:02;26.33;;;10.82;;
4466;SDS011;2246;42.664;23.278;2022-11-04T02:23:45;24.02;;;10.50;;
4466;SDS011;2246;42.664;23.278;2022-11-04T02:26:22;24.00;;;10.07;;
4466;SDS011;2246;42.664;23.278;2022-11-04T02:31:35;30.55;;;10.15;;
4466;SDS011;2246;42.664;23.278;2022-11-04T02:36:50;19.80;;;8.82;;
4466;SDS011;2246;42.664;23.278;2022-11-04T02:39:23;26.52;;;9.75;;
4466;SDS011;2246;42.664;23.278;2022-11-04T02:41:54;20.42;;;9.57;;
4466;SDS011;2246;42.664;23.278;2022-11-04T02:44:26;22.35;;;9.45;;
4466;SDS011;2246;42.664;23.278;2022-11-04T02:49:37;23.02;;;9.70;;
4466;SDS011;2246;42.664;23.278;2022-11-04T02:52:06;23.58;;;9.52;;
4466;SDS011;2246;42.664;23.278;2022-11-04T02:54:46;24.98;;;9.75;;
4466;SDS011;2246;42.664;23.278;2022-11-04T02:57:18;21.20;;;9.40;;
4466;SDS011;2246;42.664;23.278;2022-11-04T02:59:53;23.50;;;10.30;;
4466;SDS011;2246;42.664;23.278;2022-11-04T03:02:42;21.10;;;9.80;;
4466;SDS011;2246;42.664;23.278;2022-11-04T03:05:08;25.23;;;9.77;;
4466;SDS011;2246;42.664;23.278;2022-11-04T03:07:38;25.27;;;9.52;;
4466;SDS011;2246;42.664;23.278;2022-11-04T03:10:10;24.35;;;9.40;;
4466;SDS011;2246;42.664;23.278;2022-11-04T03:12:45;19.92;;;8.55;;
4466;SDS011;2246;42.664;23.278;2022-11-04T03:15:16;16.23;;;8.32;;
4466;SDS011;2246;42.664;23.278;2022-11-04T03:17:47;20.33;;;8.70;;
4466;SDS011;2246;42.664;23.278;2022-11-04T03:20:20;21.42;;;9.50;;
4466;SDS011;2246;42.664;23.278;2022-11-04T03:22:47;19.40;;;8.73;;
4466;SDS011;2246;42.664;23.278;2022-11-04T03:25:13;22.80;;;9.52;;
4466;SDS011;2246;42.664;23.278;2022-11-04T03:30:13;26.50;;;9.38;;
4466;SDS011;2246;42.664;23.278;2022-11-04T03:32:43;32.25;;;12.60;;
4466;SDS011;2246;42.664;23.278;2022-11-04T03:35:15;20.67;;;9.93;;
4466;SDS011;2246;42.664;23.278;2022-11-04T03:37:41;27.15;;;9.05;;
4466;SDS011;2246;42.664;23.278;2022-11-04T03:40:08;25.10;;;9.77;;
4466;SDS011;2246;42.664;23.278;2022-11-04T03:42:37;19.05;;;8.25;;
4466;SDS011;2246;42.664;23.278;2022-11-04T03:45:05;17.38;;;8.48;;
4466;SDS011;2246;42.664;23.278;2022-11-04T03:47:31;20.27;;;9.82;;
4466;SDS011;2246;42.664;23.278;2022-11-04T03:50:01;25.27;;;9.43;;
4466;SDS011;2246;42.664;23.278;2022-11-04T03:52:29;26.27;;;9.43;;
4466;SDS011;2246;42.664;23.278;2022-11-04T03:54:56;23.55;;;8.88;;
4466;SDS011;2246;42.664;23.278;2022-11-04T03:57:37;28.15;;;9.27;;
4466;SDS011;2246;42.664;23.278;2022-11-04T04:00:07;20.52;;;9.55;;
4466;SDS011;2246;42.664;23.278;2022-11-04T04:02:43;22.77;;;9.32;;
4466;SDS011;2246;42.664;23.278;2022-11-04T04:05:13;23.33;;;9.48;;
4466;SDS011;2246;42.664;23.278;2022-11-04T04:07:47;22.27;;;9.77;;
4466;SDS011;2246;42.664;23.278;2022-11-04T04:10:18;23.33;;;9.50;;
4466;SDS011;2246;42.664;23.278;2022-11-04T04:13:08;24.10;;;9.43;;
4466;SDS011;2246;42.664;23.278;2022-11-04T04:15:44;24.15;;;9.70;;
4466;SDS011;2246;42.664;23.278;2022-11-04T04:18:12;21.52;;;9.30;;
4466;SDS011;2246;42.664;23.278;2022-11-04T04:20:40;17.38;;;9.00;;
4466;SDS011;2246;42.664;23.278;2022-11-04T04:23:15;25.88;;;10.60;;
4466;SDS011;2246;42.664;23.278;2022-11-04T04:26:02;23.42;;;9.88;;
4466;SDS011;2246;42.664;23.278;2022-11-04T04:28:48;22.58;;;9.48;;
4466;SDS011;2246;42.664;23.278;2022-11-04T04:31:15;25.95;;;9.05;;
4466;SDS011;2246;42.664;23.278;2022-11-04T04:34:01;24.65;;;10.18;;
4466;SDS011;2246;42.664;23.278;2022-11-04T04:36:32;29.77;;;9.68;;
4466;SDS011;2246;42.664;23.278;2022-11-04T04:39:02;19.33;;;9.98;;
4466;SDS011;2246;42.664;23.278;2022-11-04T04:41:48;21.45;;;9.63;;
4466;SDS011;2246;42.664;23.278;2022-11-04T04:44:33;27.02;;;11.00;;
4466;SDS011;2246;42.664;23.278;2022-11-04T04:47:20;21.65;;;9.75;;
4466;SDS011;2246;42.664;23.278;2022-11-04T04:49:53;24.75;;;10.27;;
4466;SDS011;2246;42.664;23.278;2022-11-04T04:52:20;26.80;;;10.15;;
4466;SDS011;2246;42.664;23.278;2022-11-04T04:54:46;20.85;;;10.38;;
4466;SDS011;2246;42.664;23.278;2022-11-04T04:57:12;24.83;;;9.50;;
4466;SDS011;2246;42.664;23.278;2022-11-04T04:59:38;22.17;;;11.50;;
4466;SDS011;2246;42.664;23.278;2022-11-04T05:02:05;24.30;;;10.00;;
4466;SDS011;2246;42.664;23.278;2022-11-04T05:04:31;26.88;;;10.95;;
4466;SDS011;2246;42.664;23.278;2022-11-04T05:06:57;27.20;;;11.52;;
4466;SDS011;2246;42.664;23.278;2022-11-04T05:09:23;24.48;;;11.50;;
4466;SDS011;2246;42.664;23.278;2022-11-04T05:11:49;28.33;;;12.40;;
4466;SDS011;2246;42.664;23.278;2022-11-04T05:14:15;25.23;;;10.75;;
4466;SDS011;2246;42.664;23.278;2022-11-04T05:16:41;25.50;;;11.65;;
4466;SDS011;2246;42.664;23.278;2022-11-04T05:19:07;24.85;;;12.32;;
4466;SDS011;2246;42.664;23.278;2022-11-04T05:21:33;28.88;;;12.38;;
4466;SDS011;2246;42.664;23.278;2022-11-04T05:24:00;22.70;;;12.15;;
4466;SDS011;2246;42.664;23.278;2022-11-04T05:26:26;27.23;;;13.10;;
4466;SDS011;2246;42.664;23.278;2022-11-04T05:28:52;29.52;;;12.85;;
4466;SDS011;2246;42.664;23.278;2022-11-04T05:31:18;29.10;;;13.07;;
4466;SDS011;2246;42.664;23.278;2022-11-04T05:33:44;32.92;;;12.50;;
4466;SDS011;2246;42.664;23.278;2022-11-04T05:36:11;26.38;;;12.77;;
4466;SDS011;2246;42.664;23.278;2022-11-04T05:38:38;29.13;;;12.70;;
4466;SDS011;2246;42.664;23.278;2022-11-04T05:41:05;33.00;;;13.43;;
4466;SDS011;2246;42.664;23.278;2022-11-04T05:43:31;29.77;;;14.30;;
4466;SDS011;2246;42.664;23.278;2022-11-04T05:45:57;29.25;;;15.10;;
4466;SDS011;2246;42.664;23.278;2022-11-04T05:48:24;31.58;;;14.63;;
4466;SDS011;2246;42.664;23.278;2022-11-04T05:50:50;32.97;;;15.32;;
4466;SDS011;2246;42.664;23.278;2022-11-04T05:53:16;35.88;;;14.60;;
4466;SDS011;2246;42.664;23.278;2022-11-04T05:55:42;32.25;;;15.00;;
4466;SDS011;2246;42.664;23.278;2022-11-04T05:58:08;36.35;;;16.50;;
4466;SDS011;2246;42.664;23.278;2022-11-04T06:00:35;31.02;;;14.07;;
4466;SDS011;2246;42.664;23.278;2022-11-04T06:03:01;36.28;;;15.23;;
4466;SDS011;2246;42.664;23.278;2022-11-04T06:05:27;31.00;;;14.63;;
4466;SDS011;2246;42.664;23.278;2022-11-04T06:07:53;28.42;;;14.00;;
4466;SDS011;2246;42.664;23.278;2022-11-04T06:10:19;29.48;;;14.43;;
4466;SDS011;2246;42.664;23.278;2022-11-04T06:12:45;43.17;;;14.80;;
4466;SDS011;2246;42.664;23.278;2022-11-04T06:15:11;34.08;;;15.40;;
4466;SDS011;2246;42.664;23.278;2022-11-04T06:17:37;30.10;;;14.65;;
4466;SDS011;2246;42.664;23.278;2022-11-04T06:20:04;34.08;;;15.20;;
4466;SDS011;2246;42.664;23.278;2022-11-04T06:22:30;29.50;;;15.05;;
4466;SDS011;2246;42.664;23.278;2022-11-04T06:24:56;30.13;;;14.13;;
4466;SDS011;2246;42.664;23.278;2022-11-04T06:27:22;35.08;;;15.85;;
4466;SDS011;2246;42.664;23.278;2022-11-04T06:29:48;31.58;;;14.75;;
4466;SDS011;2246;42.664;23.278;2022-11-04T06:32:17;33.03;;;15.48;;
4466;SDS011;2246;42.664;23.278;2022-11-04T06:34:43;33.38;;;15.32;;
4466;SDS011;2246;42.664;23.278;2022-11-04T06:37:09;35.53;;;15.15;;
4466;SDS011;2246;42.664;23.278;2022-11-04T06:39:35;60.63;;;17.35;;
4466;SDS011;2246;42.664;23.278;2022-11-04T06:42:02;67.72;;;19.33;;
4466;SDS011;2246;42.664;23.278;2022-11-04T06:44:28;49.80;;;19.17;;
4466;SDS011;2246;42.664;23.278;2022-11-04T06:46:54;68.20;;;18.77;;
4466;SDS011;2246;42.664;23.278;2022-11-04T06:49:21;47.78;;;19.40;;
4466;SDS011;2246;42.664;23.278;2022-11-04T06:51:47;39.95;;;21.10;;
4466;SDS011;2246;42.664;23.278;2022-11-04T06:54:13;53.22;;;23.33;;
4466;SDS011;2246;42.664;23.278;2022-11-04T06:56:39;42.65;;;20.27;;
4466;SDS011;2246;42.664;23.278;2022-11-04T06:59:05;32.17;;;16.42;;
4466;SDS011;2246;42.664;23.278;2022-11-04T07:01:34;43.20;;;17.23;;
4466;SDS011;2246;42.664;23.278;2022-11-04T07:04:00;35.10;;;17.48;;
4466;SDS011;2246;42.664;23.278;2022-11-04T07:06:27;35.05;;;17.48;;
4466;SDS011;2246;42.664;23.278;2022-11-04T07:08:55;40.03;;;17.92;;
4466;SDS011;2246;42.664;23.278;2022-11-04T07:11:21;37.35;;;17.05;;
4466;SDS011;2246;42.664;23.278;2022-11-04T07:13:49;43.08;;;16.58;;
4466;SDS011;2246;42.664;23.278;2022-11-04T07:16:15;44.90;;;18.67;;
4466;SDS011;2246;42.664;23.278;2022-11-04T07:18:41;74.30;;;19.55;;
4466;SDS011;2246;42.664;23.278;2022-11-04T07:21:08;56.50;;;19.75;;
4466;SDS011;2246;42.664;23.278;2022-11-04T07:23:34;40.97;;;19.92;;
4466;SDS011;2246;42.664;23.278;2022-11-04T07:26:00;37.30;;;17.27;;
4466;SDS011;2246;42.664;23.278;2022-11-04T07:28:27;42.55;;;19.65;;
4466;SDS011;2246;42.664;23.278;2022-11-04T07:30:57;37.40;;;19.33;;
4466;SDS011;2246;42.664;23.278;2022-11-04T07:33:23;46.25;;;19.85;;
4466;SDS011;2246;42.664;23.278;2022-11-04T07:35:49;42.92;;;21.40;;
4466;SDS011;2246;42.664;23.278;2022-11-04T07:38:15;45.88;;;19.15;;
4466;SDS011;2246;42.664;23.278;2022-11-04T07:40:41;56.20;;;19.95;;
4466;SDS011;2246;42.664;23.278;2022-11-04T07:43:07;39.78;;;19.63;;
4466;SDS011;2246;42.664;23.278;2022-11-04T07:45:33;43.58;;;19.08;;
4466;SDS011;2246;42.664;23.278;2022-11-04T07:48:00;40.08;;;19.52;;
4466;SDS011;2246;42.664;23.278;2022-11-04T07:50:26;39.70;;;19.38;;
4466;SDS011;2246;42.664;23.278;2022-11-04T07:52:52;45.03;;;20.52;;
4466;SDS011;2246;42.664;23.278;2022-11-04T07:55:18;42.65;;;20.77;;
4466;SDS011;2246;42.664;23.278;2022-11-04T07:57:44;41.72;;;18.92;;
4466;SDS011;2246;42.664;23.278;2022-11-04T08:00:11;38.85;;;19.08;;
4466;SDS011;2246;42.664;23.278;2022-11-04T08:02:39;48.15;;;20.02;;
4466;SDS011;2246;42.664;23.278;2022-11-04T08:05:05;38.35;;;19.55;;
4466;SDS011;2246;42.664;23.278;2022-11-04T08:07:31;47.50;;;20.35;;
4466;SDS011;2246;42.664;23.278;2022-11-04T08:09:57;45.53;;;21.05;;
4466;SDS011;2246;42.664;23.278;2022-11-04T08:12:23;41.85;;;19.88;;
4466;SDS011;2246;42.664;23.278;2022-11-04T08:17:17;42.30;;;19.33;;
4466;SDS011;2246;42.664;23.278;2022-11-04T08:19:43;38.35;;;20.52;;
4466;SDS011;2246;42.664;23.278;2022-11-04T08:22:09;41.40;;;20.38;;
4466;SDS011;2246;42.664;23.278;2022-11-04T08:24:36;40.58;;;20.38;;
4466;SDS011;2246;42.664;23.278;2022-11-04T08:27:03;40.83;;;19.73;;
4466;SDS011;2246;42.664;23.278;2022-11-04T08:29:32;40.90;;;20.88;;
4466;SDS011;2246;42.664;23.278;2022-11-04T08:31:58;39.47;;;19.73;;
4466;SDS011;2246;42.664;23.278;2022-11-04T08:34:24;40.45;;;20.23;;
4466;SDS011;2246;42.664;23.278;2022-11-04T08:36:50;47.22;;;22.98;;
4466;SDS011;2246;42.664;23.278;2022-11-04T08:39:21;41.67;;;19.92;;
4466;SDS011;2246;42.664;23.278;2022-11-04T08:41:48;40.80;;;20.23;;
4466;SDS011;2246;42.664;23.278;2022-11-04T08:44:14;42.00;;;19.55;;
4466;SDS011;2246;42.664;23.278;2022-11-04T08:46:42;45.30;;;20.23;;
4466;SDS011;2246;42.664;23.278;2022-11-04T08:49:08;31.98;;;13.90;;
4466;SDS011;2246;42.664;23.278;2022-11-04T08:51:35;36.53;;;18.27;;
4466;SDS011;2246;42.664;23.278;2022-11-04T08:54:02;36.83;;;18.38;;
4466;SDS011;2246;42.664;23.278;2022-11-04T08:56:30;39.03;;;19.98;;
4466;SDS011;2246;42.664;23.278;2022-11-04T08:58:57;38.50;;;19.88;;
4466;SDS011;2246;42.664;23.278;2022-11-04T09:01:24;35.83;;;18.52;;
4466;SDS011;2246;42.664;23.278;2022-11-04T09:03:50;35.38;;;18.85;;
4466;SDS011;2246;42.664;23.278;2022-11-04T09:06:19;41.03;;;19.52;;
4466;SDS011;2246;42.664;23.278;2022-11-04T09:11:21;43.90;;;19.77;;
4466;SDS011;2246;42.664;23.278;2022-11-04T09:13:47;41.22;;;19.02;;
4466;SDS011;2246;42.664;23.278;2022-11-04T09:16:14;41.28;;;20.38;;
4466;SDS011;2246;42.664;23.278;2022-11-04T09:18:40;36.28;;;17.60;;
4466;SDS011;2246;42.664;23.278;2022-11-04T09:21:07;36.83;;;18.02;;
4466;SDS011;2246;42.664;23.278;2022-11-04T09:23:34;42.33;;;18.95;;
4466;SDS011;2246;42.664;23.278;2022-11-04T09:26:08;36.85;;;18.75;;
4466;SDS011;2246;42.664;23.278;2022-11-04T09:28:34;35.60;;;17.50;;
4466;SDS011;2246;42.664;23.278;2022-11-04T09:31:03;36.33;;;18.70;;
4466;SDS011;2246;42.664;23.278;2022-11-04T09:33:30;40.38;;;17.65;;
4466;SDS011;2246;42.664;23.278;2022-11-04T09:35:57;36.23;;;16.07;;
4466;SDS011;2246;42.664;23.278;2022-11-04T09:38:23;35.25;;;16.45;;
4466;SDS011;2246;42.664;23.278;2022-11-04T09:40:50;38.05;;;18.30;;
4466;SDS011;2246;42.664;23.278;2022-11-04T09:45:42;31.73;;;17.42;;
4466;SDS011;2246;42.664;23.278;2022-11-04T09:48:28;39.17;;;17.27;;
4466;SDS011;2246;42.664;23.278;2022-11-04T09:53:26;33.92;;;17.25;;
4466;SDS011;2246;42.664;23.278;2022-11-04T09:55:57;33.05;;;15.82;;
4466;SDS011;2246;42.664;23.278;2022-11-04T09:58:25;40.25;;;18.48;;
4466;SDS011;2246;42.664;23.278;2022-11-04T10:00:56;31.17;;;15.57;;
4466;SDS011;2246;42.664;23.278;2022-11-04T10:19:02;40.42;;;18.13;;
4466;SDS011;2246;42.664;23.278;2022-11-04T10:21:40;34.50;;;16.95;;
4466;SDS011;2246;42.664;23.278;2022-11-04T10:26:41;32.63;;;16.50;;
4466;SDS011;2246;42.664;23.278;2022-11-04T10:31:47;38.65;;;17.90;;
4466;SDS011;2246;42.664;23.278;2022-11-04T10:34:56;32.80;;;17.33;;
4466;SDS011;2246;42.664;23.278;2022-11-04T10:37:02;39.58;;;16.83;;
4466;SDS011;2246;42.664;23.278;2022-11-04T10:39:29;37.03;;;17.70;;
4466;SDS011;2246;42.664;23.278;2022-11-04T10:41:57;35.35;;;16.33;;
4466;SDS011;2246;42.664;23.278;2022-11-04T10:44:27;35.03;;;16.40;;
4466;SDS011;2246;42.664;23.278;2022-11-04T10:46:58;33.65;;;16.13;;
4466;SDS011;2246;42.664;23.278;2022-11-04T10:52:11;37.92;;;17.38;;
4466;SDS011;2246;42.664;23.278;2022-11-04T10:54:42;30.55;;;15.57;;
4466;SDS011;2246;42.664;23.278;2022-11-04T10:57:09;32.45;;;16.45;;
4466;SDS011;2246;42.664;23.278;2022-11-04T10:59:58;38.42;;;16.83;;
4466;SDS011;2246;42.664;23.278;2022-11-04T11:07:45;37.10;;;16.63;;
4466;SDS011;2246;42.664;23.278;2022-11-04T11:10:30;34.90;;;16.10;;
4466;SDS011;2246;42.664;23.278;2022-11-04T11:13:01;39.67;;;17.27;;
4466;SDS011;2246;42.664;23.278;2022-11-04T11:15:38;32.70;;;16.42;;
4466;SDS011;2246;42.664;23.278;2022-11-04T11:20:32;36.72;;;16.13;;
4466;SDS011;2246;42.664;23.278;2022-11-04T11:23:02;27.17;;;14.40;;
4466;SDS011;2246;42.664;23.278;2022-11-04T11:25:34;40.38;;;16.40;;
4466;SDS011;2246;42.664;23.278;2022-11-04T11:30:30;29.58;;;14.35;;
4466;SDS011;2246;42.664;23.278;2022-11-04T11:33:02;32.97;;;14.35;;
4466;SDS011;2246;42.664;23.278;2022-11-04T11:35:30;33.22;;;15.25;;
4466;SDS011;2246;42.664;23.278;2022-11-04T11:37:57;32.15;;;14.07;;
4466;SDS011;2246;42.664;23.278;2022-11-04T11:40:29;25.80;;;13.25;;
4466;SDS011;2246;42.664;23.278;2022-11-04T11:42:56;30.80;;;13.93;;
4466;SDS011;2246;42.664;23.278;2022-11-04T11:45:23;34.83;;;13.27;;
4466;SDS011;2246;42.664;23.278;2022-11-04T11:47:50;32.10;;;14.00;;
4466;SDS011;2246;42.664;23.278;2022-11-04T11:50:26;28.02;;;13.70;;
4466;SDS011;2246;42.664;23.278;2022-11-04T11:53:15;33.88;;;14.82;;
4466;SDS011;2246;42.664;23.278;2022-11-04T12:01:03;23.17;;;13.10;;
4466;SDS011;2246;42.664;23.278;2022-11-04T12:03:32;25.98;;;12.07;;
4466;SDS011;2246;42.664;23.278;2022-11-04T12:08:38;24.02;;;12.05;;
4466;SDS011;2246;42.664;23.278;2022-11-04T12:13:38;25.25;;;12.20;;
4466;SDS011;2246;42.664;23.278;2022-11-04T12:21:46;31.52;;;12.65;;
4466;SDS011;2246;42.664;23.278;2022-11-04T12:40:25;34.30;;;12.52;;
4466;SDS011;2246;42.664;23.278;2022-11-04T12:50:55;31.30;;;13.48;;
4466;SDS011;2246;42.664;23.278;2022-11-04T12:58:27;21.30;;;10.50;;
4466;SDS011;2246;42.664;23.278;2022-11-04T13:01:00;27.00;;;12.98;;
4466;SDS011;2246;42.664;23.278;2022-11-04T13:06:20;23.13;;;11.68;;
4466;SDS011;2246;42.664;23.278;2022-11-04T13:08:50;24.33;;;11.65;;
4466;SDS011;2246;42.664;23.278;2022-11-04T13:11:19;21.15;;;10.35;;
4466;SDS011;2246;42.664;23.278;2022-11-04T13:13:58;21.33;;;10.65;;
4466;SDS011;2246;42.664;23.278;2022-11-04T13:16:31;20.23;;;10.43;;
4466;SDS011;2246;42.664;23.278;2022-11-04T13:18:58;23.65;;;10.18;;
4466;SDS011;2246;42.664;23.278;2022-11-04T13:21:26;20.52;;;10.32;;
4466;SDS011;2246;42.664;23.278;2022-11-04T13:26:22;28.80;;;11.55;;
4466;SDS011;2246;42.664;23.278;2022-11-04T13:28:52;23.17;;;12.20;;
4466;SDS011;2246;42.664;23.278;2022-11-04T13:34:05;21.92;;;11.23;;
4466;SDS011;2246;42.664;23.278;2022-11-04T13:36:41;24.75;;;10.35;;
4466;SDS011;2246;42.664;23.278;2022-11-04T13:44:27;17.73;;;9.57;;
4466;SDS011;2246;42.664;23.278;2022-11-04T13:46:57;29.88;;;10.82;;
4466;SDS011;2246;42.664;23.278;2022-11-04T13:49:26;21.67;;;10.43;;
4466;SDS011;2246;42.664;23.278;2022-11-04T13:52:07;22.98;;;10.30;;
4466;SDS011;2246;42.664;23.278;2022-11-04T13:54:37;29.27;;;11.32;;
4466;SDS011;2246;42.664;23.278;2022-11-04T13:57:07;26.98;;;10.82;;
4466;SDS011;2246;42.664;23.278;2022-11-04T13:59:34;24.05;;;10.68;;
4466;SDS011;2246;42.664;23.278;2022-11-04T14:04:39;26.55;;;9.98;;
4466;SDS011;2246;42.664;23.278;2022-11-04T14:07:06;21.73;;;10.50;;
4466;SDS011;2246;42.664;23.278;2022-11-04T14:14:37;28.02;;;10.05;;
4466;SDS011;2246;42.664;23.278;2022-11-04T14:17:03;26.33;;;10.07;;
4466;SDS011;2246;42.664;23.278;2022-11-04T14:22:20;27.13;;;9.73;;
4466;SDS011;2246;42.664;23.278;2022-11-04T14:24:53;18.42;;;9.15;;
4466;SDS011;2246;42.664;23.278;2022-11-04T14:29:51;27.40;;;11.85;;
4466;SDS011;2246;42.664;23.278;2022-11-04T14:32:22;22.20;;;9.70;;
4466;SDS011;2246;42.664;23.278;2022-11-04T14:34:56;27.73;;;10.70;;
4466;SDS011;2246;42.664;23.278;2022-11-04T14:37:23;25.92;;;10.60;;
4466;SDS011;2246;42.664;23.278;2022-11-04T14:39:53;23.50;;;12.05;;
4466;SDS011;2246;42.664;23.278;2022-11-04T14:45:06;23.98;;;11.05;;
4466;SDS011;2246;42.664;23.278;2022-11-04T14:52:26;25.08;;;11.48;;
4466;SDS011;2246;42.664;23.278;2022-11-04T14:54:55;22.77;;;10.43;;
4466;SDS011;2246;42.664;23.278;2022-11-04T14:57:21;27.25;;;11.25;;
4466;SDS011;2246;42.664;23.278;2022-11-04T14:59:48;28.73;;;10.68;;
4466;SDS011;2246;42.664;23.278;2022-11-04T15:02:27;31.25;;;10.95;;
4466;SDS011;2246;42.664;23.278;2022-11-04T15:04:56;25.33;;;10.15;;
4466;SDS011;2246;42.664;23.278;2022-11-04T15:07:24;20.77;;;10.07;;
4466;SDS011;2246;42.664;23.278;2022-11-04T15:09:50;23.92;;;9.90;;
4466;SDS011;2246;42.664;23.278;2022-11-04T15:12:17;27.10;;;10.90;;
4466;SDS011;2246;42.664;23.278;2022-11-04T15:15:18;25.05;;;11.13;;
4466;SDS011;2246;42.664;23.278;2022-11-04T15:17:48;30.45;;;12.10;;
4466;SDS011;2246;42.664;23.278;2022-11-04T15:20:20;27.20;;;11.25;;
4466;SDS011;2246;42.664;23.278;2022-11-04T15:22:48;22.20;;;11.07;;
4466;SDS011;2246;42.664;23.278;2022-11-04T15:25:14;24.77;;;11.25;;
4466;SDS011;2246;42.664;23.278;2022-11-04T15:27:40;30.45;;;14.38;;
4466;SDS011;2246;42.664;23.278;2022-11-04T15:30:15;39.38;;;15.18;;
4466;SDS011;2246;42.664;23.278;2022-11-04T15:32:53;33.55;;;12.75;;
4466;SDS011;2246;42.664;23.278;2022-11-04T15:35:19;23.48;;;11.85;;
4466;SDS011;2246;42.664;23.278;2022-11-04T15:37:45;31.20;;;13.27;;
4466;SDS011;2246;42.664;23.278;2022-11-04T15:40:13;30.25;;;13.35;;
4466;SDS011;2246;42.664;23.278;2022-11-04T15:42:39;28.55;;;13.25;;
4466;SDS011;2246;42.664;23.278;2022-11-04T15:50:45;30.70;;;12.50;;
4466;SDS011;2246;42.664;23.278;2022-11-04T15:53:13;27.27;;;11.63;;
4466;SDS011;2246;42.664;23.278;2022-11-04T15:55:41;26.55;;;12.07;;
4466;SDS011;2246;42.664;23.278;2022-11-04T15:58:10;33.88;;;12.93;;
4466;SDS011;2246;42.664;23.278;2022-11-04T16:00:38;34.38;;;13.90;;
4466;SDS011;2246;42.664;23.278;2022-11-04T16:03:04;34.60;;;13.85;;
4466;SDS011;2246;42.664;23.278;2022-11-04T16:05:32;41.08;;;13.32;;
4466;SDS011;2246;42.664;23.278;2022-11-04T16:11:17;30.38;;;13.23;;
4466;SDS011;2246;42.664;23.278;2022-11-04T16:13:44;29.52;;;12.82;;
4466;SDS011;2246;42.664;23.278;2022-11-04T16:18:43;36.03;;;14.75;;
4466;SDS011;2246;42.664;23.278;2022-11-04T16:21:20;37.50;;;14.80;;
4466;SDS011;2246;42.664;23.278;2022-11-04T16:24:33;32.63;;;13.48;;
4466;SDS011;2246;42.664;23.278;2022-11-04T16:26:40;31.65;;;14.90;;
4466;SDS011;2246;42.664;23.278;2022-11-04T16:29:09;26.90;;;13.57;;
4466;SDS011;2246;42.664;23.278;2022-11-04T16:31:38;37.17;;;15.13;;
4466;SDS011;2246;42.664;23.278;2022-11-04T16:34:07;33.70;;;14.88;;
4466;SDS011;2246;42.664;23.278;2022-11-04T16:36:33;38.10;;;14.63;;
4466;SDS011;2246;42.664;23.278;2022-11-04T16:39:00;38.80;;;14.45;;
4466;SDS011;2246;42.664;23.278;2022-11-04T16:41:36;39.42;;;16.30;;
4466;SDS011;2246;42.664;23.278;2022-11-04T16:44:02;31.15;;;15.45;;
4466;SDS011;2246;42.664;23.278;2022-11-04T16:46:28;40.63;;;14.82;;
4466;SDS011;2246;42.664;23.278;2022-11-04T16:48:54;35.00;;;13.65;;
4466;SDS011;2246;42.664;23.278;2022-11-04T16:51:21;36.47;;;13.95;;
4466;SDS011;2246;42.664;23.278;2022-11-04T16:53:52;33.78;;;13.38;;
4466;SDS011;2246;42.664;23.278;2022-11-04T16:56:20;39.63;;;15.18;;
4466;SDS011;2246;42.664;23.278;2022-11-04T16:58:46;37.15;;;16.05;;
4466;SDS011;2246;42.664;23.278;2022-11-04T17:01:12;35.08;;;15.23;;
4466;SDS011;2246;42.664;23.278;2022-11-04T17:03:39;38.92;;;15.20;;
4466;SDS011;2246;42.664;23.278;2022-11-04T17:08:32;34.33;;;14.88;;
4466;SDS011;2246;42.664;23.278;2022-11-04T17:10:59;41.75;;;14.93;;
4466;SDS011;2246;42.664;23.278;2022-11-04T17:13:25;35.20;;;16.52;;
4466;SDS011;2246;42.664;23.278;2022-11-04T17:15:51;39.30;;;17.65;;
4466;SDS011;2246;42.664;23.278;2022-11-04T17:18:18;42.23;;;17.93;;
4466;SDS011;2246;42.664;23.278;2022-11-04T17:20:48;41.70;;;17.98;;
4466;SDS011;2246;42.664;23.278;2022-11-04T17:23:16;41.13;;;17.73;;
4466;SDS011;2246;42.664;23.278;2022-11-04T17:25:42;51.58;;;17.88;;